createdAt,value
2024-02-24T00:00:56.560Z,91.51
2024-02-24T00:01:56.499Z,91.41
2024-02-24T00:02:56.501Z,91.61
2024-02-24T00:03:56.572Z,91.72
2024-02-24T00:04:56.476Z,91.72
2024-02-24T00:05:56.602Z,92.03
2024-02-24T00:06:56.429Z,92.49
2024-02-24T00:07:56.425Z,92.18
2024-02-24T00:08:56.467Z,92.13
2024-02-24T00:09:56.393Z,92.13
2024-02-24T00:10:56.416Z,92.13
2024-02-24T00:11:56.431Z,92.28
2024-02-24T00:12:56.383Z,92.28
2024-02-24T00:13:56.362Z,92.38
2024-02-24T00:14:56.378Z,92.38
2024-02-24T00:15:56.311Z,92.49
2024-02-24T00:16:56.297Z,92.59
2024-02-24T00:17:56.348Z,92.59
2024-02-24T00:18:56.345Z,92.44
2024-02-24T00:19:56.261Z,92.80
2024-02-24T00:20:56.281Z,92.90
2024-02-24T00:21:57.195Z,92.80
2024-02-24T00:22:56.249Z,93.10
2024-02-24T00:23:56.244Z,93.00
2024-02-24T00:24:57.166Z,93.10
2024-02-24T00:25:56.206Z,93.21
2024-02-24T00:26:56.188Z,93.10
2024-02-24T00:27:56.159Z,93.21
2024-02-24T00:28:56.179Z,93.21
2024-02-24T00:29:56.124Z,93.00
2024-02-24T00:30:56.140Z,93.00
2024-02-24T00:31:56.831Z,93.21
2024-02-24T00:32:56.247Z,93.31
2024-02-24T00:33:56.253Z,93.41
2024-02-24T00:34:57.019Z,93.52
2024-02-24T00:35:56.075Z,93.62
2024-02-24T00:36:56.056Z,93.73
2024-02-24T00:37:56.026Z,93.73
2024-02-24T00:38:56.073Z,93.73
2024-02-24T00:39:55.995Z,93.83
2024-02-24T00:40:55.985Z,94.04
2024-02-24T00:41:55.964Z,93.93
2024-02-24T00:42:56.031Z,93.93
2024-02-24T00:43:56.634Z,94.04
2024-02-24T00:44:55.974Z,94.04
2024-02-24T00:45:55.922Z,94.04
2024-02-24T00:46:57.556Z,94.14
2024-02-24T00:47:56.012Z,94.24
2024-02-24T00:48:55.930Z,94.45
2024-02-24T00:49:55.858Z,94.60
2024-02-24T00:50:55.874Z,94.60
2024-02-24T00:51:56.764Z,94.81
2024-02-24T00:52:55.820Z,94.91
2024-02-24T00:53:55.838Z,95.01
2024-02-24T00:54:55.792Z,95.01
2024-02-24T00:55:55.785Z,95.01
2024-02-24T00:56:55.832Z,95.22
2024-02-24T00:57:55.778Z,95.01
2024-02-24T00:58:56.693Z,94.91
2024-02-24T00:59:56.697Z,94.70
2024-02-24T01:00:55.743Z,94.70
2024-02-24T01:01:55.784Z,94.70
2024-02-24T01:02:55.847Z,94.70
2024-02-24T01:03:55.795Z,94.81
2024-02-24T01:04:55.665Z,94.91
2024-02-24T01:05:56.659Z,94.91
2024-02-24T01:06:55.684Z,94.91
2024-02-24T01:07:55.650Z,95.01
2024-02-24T01:08:55.665Z,95.22
2024-02-24T01:09:55.602Z,95.32
2024-02-24T01:10:55.635Z,95.57
2024-02-24T01:11:55.660Z,95.47
2024-02-24T01:12:55.553Z,95.57
2024-02-24T01:13:55.657Z,95.57
2024-02-24T01:14:58.387Z,95.57
2024-02-24T01:15:55.521Z,95.68
2024-02-24T01:16:55.520Z,95.89
2024-02-24T01:17:55.618Z,95.99
2024-02-24T01:18:55.613Z,96.09
2024-02-24T01:19:55.461Z,96.20
2024-02-24T01:20:55.530Z,96.20
2024-02-24T01:21:58.350Z,96.09
2024-02-24T01:22:55.528Z,95.89
2024-02-24T01:23:55.534Z,95.89
2024-02-24T01:24:55.385Z,95.78
2024-02-24T01:25:55.379Z,95.78
2024-02-24T01:26:55.412Z,95.78
2024-02-24T01:27:55.387Z,95.78
2024-02-24T01:28:55.365Z,95.89
2024-02-24T01:29:55.329Z,96.09
2024-02-24T01:30:56.034Z,96.20
2024-02-24T01:31:55.298Z,96.09
2024-02-24T01:32:55.431Z,96.09
2024-02-24T01:33:55.476Z,96.09
2024-02-24T01:34:55.281Z,96.09
2024-02-24T01:35:55.290Z,95.99
2024-02-24T01:36:55.256Z,95.89
2024-02-24T01:37:55.218Z,95.99
2024-02-24T01:38:56.326Z,96.09
2024-02-24T01:39:55.213Z,96.09
2024-02-24T01:40:55.196Z,96.20
2024-02-24T01:41:55.858Z,96.20
2024-02-24T01:42:56.098Z,96.20
2024-02-24T01:43:55.160Z,96.30
2024-02-24T01:44:55.275Z,96.41
2024-02-24T01:45:55.140Z,96.41
2024-02-24T01:46:55.093Z,96.51
2024-02-24T01:47:55.437Z,96.61
2024-02-24T01:48:55.281Z,96.72
2024-02-24T01:49:55.789Z,96.72
2024-02-24T01:50:55.423Z,96.82
2024-02-24T01:51:55.066Z,96.82
2024-02-24T01:52:55.011Z,96.72
2024-02-24T01:53:55.024Z,96.61
2024-02-24T01:54:54.990Z,96.61
2024-02-24T01:55:55.042Z,96.61
2024-02-24T01:56:55.018Z,96.72
2024-02-24T01:57:55.031Z,96.72
2024-02-24T01:58:54.963Z,96.82
2024-02-24T01:59:54.916Z,96.92
2024-02-24T02:00:56.001Z,96.82
2024-02-24T02:01:54.886Z,96.61
2024-02-24T02:02:54.943Z,96.61
2024-02-24T02:03:54.867Z,96.61
2024-02-24T02:04:54.903Z,96.51
2024-02-24T02:05:55.874Z,96.61
2024-02-24T02:06:54.897Z,96.61
2024-02-24T02:07:54.845Z,96.61
2024-02-24T02:08:54.889Z,96.72
2024-02-24T02:09:55.744Z,96.72
2024-02-24T02:10:54.815Z,96.72
2024-02-24T02:12:02.707Z,96.72
2024-02-24T02:12:55.843Z,96.61
2024-02-24T02:13:54.735Z,96.82
2024-02-24T02:14:54.781Z,96.72
2024-02-24T02:15:54.707Z,96.82
2024-02-24T02:16:54.712Z,96.72
2024-02-24T02:17:54.816Z,96.72
2024-02-24T02:18:54.744Z,96.72
2024-02-24T02:19:54.686Z,96.61
2024-02-24T02:20:54.702Z,96.36
2024-02-24T02:21:54.665Z,96.26
2024-02-24T02:22:54.617Z,96.26
2024-02-24T02:23:54.670Z,96.26
2024-02-24T02:24:54.634Z,96.26
2024-02-24T02:25:54.577Z,96.36
2024-02-24T02:26:54.606Z,96.41
2024-02-24T02:27:54.591Z,96.61
2024-02-24T02:28:55.484Z,96.51
2024-02-24T02:29:54.556Z,96.61
2024-02-24T02:30:54.515Z,96.51
2024-02-24T02:31:54.519Z,96.36
2024-02-24T02:32:54.592Z,96.41
2024-02-24T02:33:54.579Z,96.41
2024-02-24T02:34:54.486Z,96.41
2024-02-24T02:35:55.410Z,96.51
2024-02-24T02:36:54.450Z,96.61
2024-02-24T02:37:54.446Z,96.72
2024-02-24T02:38:54.425Z,96.82
2024-02-24T02:39:54.400Z,96.92
2024-02-24T02:40:54.394Z,97.03
2024-02-24T02:41:54.383Z,97.03
2024-02-24T02:42:55.324Z,96.92
2024-02-24T02:43:54.394Z,97.03
2024-02-24T02:44:54.389Z,97.03
2024-02-24T02:45:55.085Z,96.92
2024-02-24T02:46:54.319Z,96.92
2024-02-24T02:47:54.389Z,96.92
2024-02-24T02:48:54.355Z,97.07
2024-02-24T02:49:54.287Z,97.28
2024-02-24T02:50:54.289Z,97.38
2024-02-24T02:51:54.255Z,97.59
2024-02-24T02:52:54.243Z,97.69
2024-02-24T02:53:54.223Z,97.69
2024-02-24T02:54:54.213Z,97.59
2024-02-24T02:55:54.184Z,97.69
2024-02-24T02:56:54.213Z,97.69
2024-02-24T02:57:54.150Z,97.69
2024-02-24T02:58:55.092Z,97.69
2024-02-24T02:59:54.180Z,97.80
2024-02-24T03:00:54.134Z,97.86
2024-02-24T03:01:54.123Z,98.00
2024-02-24T03:02:54.128Z,97.80
2024-02-24T03:03:55.075Z,97.80
2024-02-24T03:04:54.084Z,97.65
2024-02-24T03:05:54.189Z,97.65
2024-02-24T03:06:54.102Z,97.55
2024-02-24T03:07:54.041Z,97.34
2024-02-24T03:08:56.969Z,97.24
2024-02-24T03:09:54.018Z,97.34
2024-02-24T03:10:54.980Z,97.34
2024-02-24T03:11:54.081Z,97.55
2024-02-24T03:12:53.953Z,97.44
2024-02-24T03:13:53.957Z,97.34
2024-02-24T03:14:54.073Z,97.34
2024-02-24T03:15:53.928Z,97.34
2024-02-24T03:16:53.898Z,97.34
2024-02-24T03:17:53.953Z,97.44
2024-02-24T03:18:53.992Z,97.55
2024-02-24T03:19:53.854Z,97.75
2024-02-24T03:20:53.967Z,97.96
2024-02-24T03:21:53.859Z,98.17
2024-02-24T03:22:53.814Z,97.96
2024-02-24T03:23:53.871Z,97.86
2024-02-24T03:24:53.823Z,97.86
2024-02-24T03:25:54.703Z,97.91
2024-02-24T03:26:53.896Z,97.91
2024-02-24T03:27:53.778Z,97.91
2024-02-24T03:28:54.700Z,97.91
2024-02-24T03:29:53.786Z,97.81
2024-02-24T03:30:53.706Z,97.91
2024-02-24T03:31:53.728Z,97.81
2024-02-24T03:32:53.921Z,97.71
2024-02-24T03:33:54.619Z,97.81
2024-02-24T03:34:54.583Z,97.71
2024-02-24T03:35:53.738Z,97.81
2024-02-24T03:36:53.657Z,97.91
2024-02-24T03:37:53.648Z,97.81
2024-02-24T03:38:53.636Z,97.81
2024-02-24T03:39:53.624Z,97.91
2024-02-24T03:40:53.570Z,98.12
2024-02-24T03:41:53.633Z,98.12
2024-02-24T03:42:53.605Z,98.12
2024-02-24T03:43:53.553Z,98.02
2024-02-24T03:44:53.646Z,98.02
2024-02-24T03:45:53.519Z,98.12
2024-02-24T03:46:53.524Z,98.12
2024-02-24T03:47:53.638Z,98.12
2024-02-24T03:48:53.590Z,98.22
2024-02-24T03:49:53.476Z,98.12
2024-02-24T03:50:53.833Z,98.12
2024-02-24T03:51:53.459Z,98.22
2024-02-24T03:52:54.153Z,98.43
2024-02-24T03:53:53.496Z,98.64
2024-02-24T03:54:53.417Z,98.74
2024-02-24T03:55:53.393Z,98.54
2024-02-24T03:56:53.478Z,98.64
2024-02-24T03:57:53.359Z,98.54
2024-02-24T03:58:54.028Z,98.18
2024-02-24T03:59:53.379Z,97.87
2024-02-24T04:00:54.042Z,97.77
2024-02-24T04:01:53.296Z,97.66
2024-02-24T04:02:53.402Z,97.45
2024-02-24T04:03:53.355Z,97.35
2024-02-24T04:04:53.358Z,97.14
2024-02-24T04:05:54.300Z,97.10
2024-02-24T04:06:53.298Z,97.00
2024-02-24T04:07:53.248Z,97.00
2024-02-24T04:08:53.326Z,97.00
2024-02-24T04:09:53.243Z,96.79
2024-02-24T04:10:53.293Z,96.79
2024-02-24T04:11:53.342Z,96.58
2024-02-24T04:12:53.183Z,96.48
2024-02-24T04:13:53.146Z,96.58
2024-02-24T04:14:53.301Z,97.00
2024-02-24T04:15:53.118Z,97.10
2024-02-24T04:16:53.133Z,97.14
2024-02-24T04:17:53.253Z,96.94
2024-02-24T04:18:53.123Z,97.14
2024-02-24T04:19:53.093Z,97.45
2024-02-24T04:20:53.140Z,97.45
2024-02-24T04:21:53.063Z,97.66
2024-02-24T04:22:53.026Z,97.87
2024-02-24T04:23:53.815Z,98.12
2024-02-24T04:24:53.047Z,98.33
2024-02-24T04:25:52.993Z,98.64
2024-02-24T04:26:53.244Z,98.74
2024-02-24T04:27:52.950Z,98.95
2024-02-24T04:28:53.640Z,99.05
2024-02-24T04:29:53.012Z,99.05
2024-02-24T04:30:52.936Z,99.05
2024-02-24T04:31:52.903Z,99.05
2024-02-24T04:32:53.035Z,99.05
2024-02-24T04:33:52.971Z,98.95
2024-02-24T04:34:52.900Z,99.05
2024-02-24T04:35:52.925Z,99.05
2024-02-24T04:36:53.548Z,99.16
2024-02-24T04:37:53.820Z,99.16
2024-02-24T04:38:53.831Z,99.26
2024-02-24T04:39:52.798Z,99.31
2024-02-24T04:40:52.780Z,99.52
2024-02-24T04:41:52.840Z,99.62
2024-02-24T04:42:52.773Z,99.62
2024-02-24T04:43:52.757Z,99.62
2024-02-24T04:44:52.917Z,99.52
2024-02-24T04:45:52.742Z,99.37
2024-02-24T04:46:52.728Z,99.26
2024-02-24T04:47:53.495Z,99.05
2024-02-24T04:48:52.757Z,98.95
2024-02-24T04:49:52.724Z,98.95
2024-02-24T04:50:53.728Z,98.64
2024-02-24T04:51:52.667Z,98.64
2024-02-24T04:52:52.657Z,98.64
2024-02-24T04:53:52.655Z,98.74
2024-02-24T04:54:53.315Z,98.74
2024-02-24T04:55:52.578Z,98.74
2024-02-24T04:56:53.588Z,98.74
2024-02-24T04:57:52.563Z,98.85
2024-02-24T04:58:52.568Z,98.74
2024-02-24T04:59:52.657Z,98.74
2024-02-24T05:00:53.680Z,98.70
2024-02-24T05:01:53.486Z,98.74
2024-02-24T05:02:52.617Z,98.60
2024-02-24T05:03:52.530Z,98.60
2024-02-24T05:04:52.611Z,98.80
2024-02-24T05:05:52.561Z,98.70
2024-02-24T05:06:52.577Z,98.70
2024-02-24T05:07:52.587Z,98.70
2024-02-24T05:08:52.640Z,98.80
2024-02-24T05:09:52.473Z,98.95
2024-02-24T05:10:52.415Z,99.16
2024-02-24T05:11:52.517Z,99.16
2024-02-24T05:12:52.378Z,99.16
2024-02-24T05:13:53.300Z,99.16
2024-02-24T05:14:52.419Z,99.05
2024-02-24T05:15:52.330Z,98.95
2024-02-24T05:16:52.326Z,99.16
2024-02-24T05:17:52.412Z,99.26
2024-02-24T05:18:52.381Z,99.47
2024-02-24T05:19:52.289Z,99.68
2024-02-24T05:20:52.359Z,99.93
2024-02-24T05:21:52.272Z,99.99
2024-02-24T05:22:52.240Z,99.99
2024-02-24T05:23:53.216Z,99.99
2024-02-24T05:24:52.195Z,99.99
2024-02-24T05:25:52.188Z,99.88
2024-02-24T05:26:52.305Z,99.68
2024-02-24T05:27:52.174Z,99.47
2024-02-24T05:28:53.099Z,99.26
2024-02-24T05:29:52.212Z,99.11
2024-02-24T05:30:52.821Z,99.01
2024-02-24T05:31:52.128Z,99.01
2024-02-24T05:32:53.555Z,99.01
2024-02-24T05:33:52.297Z,98.80
2024-02-24T05:34:53.076Z,98.70
2024-02-24T05:35:52.110Z,98.60
2024-02-24T05:36:52.730Z,98.60
2024-02-24T05:37:52.017Z,98.70
2024-02-24T05:38:52.115Z,98.70
2024-02-24T05:39:52.015Z,98.70
2024-02-24T05:40:52.940Z,98.60
2024-02-24T05:41:52.771Z,98.60
2024-02-24T05:42:52.047Z,98.49
2024-02-24T05:43:52.640Z,98.34
2024-02-24T05:44:51.969Z,98.34
2024-02-24T05:45:51.916Z,98.44
2024-02-24T05:46:51.907Z,98.55
2024-02-24T05:47:52.003Z,98.44
2024-02-24T05:48:51.975Z,98.34
2024-02-24T05:49:51.893Z,98.13
2024-02-24T05:50:52.087Z,98.13
2024-02-24T05:51:52.855Z,98.13
2024-02-24T05:52:51.814Z,98.03
2024-02-24T05:53:51.885Z,97.83
2024-02-24T05:54:51.792Z,97.72
2024-02-24T05:55:51.802Z,97.72
2024-02-24T05:56:52.027Z,97.72
2024-02-24T05:57:51.786Z,97.83
2024-02-24T05:58:51.766Z,97.83
2024-02-24T05:59:51.793Z,97.83
2024-02-24T06:00:51.737Z,97.72
2024-02-24T06:01:51.694Z,97.78
2024-02-24T06:02:51.749Z,97.67
2024-02-24T06:03:51.708Z,97.67
2024-02-24T06:04:51.680Z,97.57
2024-02-24T06:05:51.738Z,97.57
2024-02-24T06:06:51.699Z,97.57
2024-02-24T06:07:52.962Z,97.57
2024-02-24T06:08:51.677Z,97.47
2024-02-24T06:09:51.626Z,97.67
2024-02-24T06:10:52.600Z,97.47
2024-02-24T06:11:51.709Z,97.47
2024-02-24T06:12:51.584Z,97.47
2024-02-24T06:13:51.563Z,97.47
2024-02-24T06:14:51.629Z,97.47
2024-02-24T06:15:52.291Z,97.78
2024-02-24T06:16:51.498Z,97.78
2024-02-24T06:17:51.574Z,97.78
2024-02-24T06:18:51.572Z,97.67
2024-02-24T06:19:51.489Z,97.36
2024-02-24T06:20:51.571Z,97.26
2024-02-24T06:21:51.471Z,97.57
2024-02-24T06:22:51.448Z,97.47
2024-02-24T06:23:51.519Z,97.47
2024-02-24T06:24:52.133Z,97.57
2024-02-24T06:25:51.397Z,97.36
2024-02-24T06:26:51.530Z,97.36
2024-02-24T06:27:51.364Z,97.47
2024-02-24T06:28:51.364Z,97.47
2024-02-24T06:29:51.610Z,97.26
2024-02-24T06:30:51.311Z,97.06
2024-02-24T06:31:51.318Z,97.36
2024-02-24T06:32:51.492Z,97.36
2024-02-24T06:33:51.431Z,97.36
2024-02-24T06:34:51.370Z,97.57
2024-02-24T06:35:51.333Z,97.47
2024-02-24T06:36:51.256Z,97.57
2024-02-24T06:37:51.261Z,97.57
2024-02-24T06:38:51.275Z,97.47
2024-02-24T06:39:52.154Z,97.57
2024-02-24T06:40:51.526Z,97.67
2024-02-24T06:41:51.272Z,97.67
2024-02-24T06:42:51.150Z,97.78
2024-02-24T06:43:51.156Z,97.67
2024-02-24T06:44:51.374Z,97.78
2024-02-24T06:45:51.153Z,97.88
2024-02-24T06:46:53.635Z,97.88
2024-02-24T06:47:51.848Z,98.09
2024-02-24T06:48:52.178Z,98.30
2024-02-24T06:49:51.140Z,98.30
2024-02-24T06:50:51.187Z,98.09
2024-02-24T06:51:52.019Z,97.88
2024-02-24T06:52:51.028Z,97.78
2024-02-24T06:53:51.132Z,97.53
2024-02-24T06:54:51.748Z,97.74
2024-02-24T06:55:50.965Z,97.42
2024-02-24T06:56:51.093Z,97.53
2024-02-24T06:57:50.946Z,97.22
2024-02-24T06:58:50.929Z,97.32
2024-02-24T06:59:51.090Z,97.11
2024-02-24T07:00:50.939Z,97.11
2024-02-24T07:01:51.292Z,97.11
2024-02-24T07:02:51.322Z,97.01
2024-02-24T07:03:51.065Z,97.11
2024-02-24T07:04:50.904Z,97.22
2024-02-24T07:05:50.919Z,97.32
2024-02-24T07:06:50.897Z,97.01
2024-02-24T07:07:50.936Z,96.80
2024-02-24T07:08:50.955Z,96.86
2024-02-24T07:09:50.864Z,96.66
2024-02-24T07:10:51.165Z,96.66
2024-02-24T07:11:50.916Z,96.76
2024-02-24T07:12:50.808Z,96.66
2024-02-24T07:13:50.772Z,96.76
2024-02-24T07:14:50.925Z,96.66
2024-02-24T07:15:50.773Z,96.55
2024-02-24T07:16:50.732Z,96.45
2024-02-24T07:17:50.762Z,96.45
2024-02-24T07:18:50.813Z,96.34
2024-02-24T07:19:50.717Z,96.45
2024-02-24T07:20:50.830Z,96.24
2024-02-24T07:21:50.691Z,96.34
2024-02-24T07:22:50.679Z,96.45
2024-02-24T07:23:50.784Z,96.76
2024-02-24T07:24:50.669Z,96.66
2024-02-24T07:25:50.611Z,96.45
2024-02-24T07:26:51.188Z,96.55
2024-02-24T07:27:50.590Z,96.55
2024-02-24T07:28:50.569Z,96.45
2024-02-24T07:29:50.700Z,96.14
2024-02-24T07:30:50.545Z,95.83
2024-02-24T07:31:50.562Z,95.73
2024-02-24T07:32:50.627Z,95.78
2024-02-24T07:33:50.793Z,95.89
2024-02-24T07:34:50.593Z,95.99
2024-02-24T07:35:50.587Z,95.78
2024-02-24T07:36:50.465Z,95.37
2024-02-24T07:37:50.459Z,95.37
2024-02-24T07:38:50.512Z,95.27
2024-02-24T07:39:50.474Z,94.96
2024-02-24T07:40:50.458Z,95.27
2024-02-24T07:41:50.438Z,95.27
2024-02-24T07:42:50.405Z,95.27
2024-02-24T07:43:50.355Z,95.22
2024-02-24T07:44:50.414Z,95.43
2024-02-24T07:45:50.333Z,95.12
2024-02-24T07:46:51.264Z,95.22
2024-02-24T07:47:50.341Z,95.02
2024-02-24T07:48:50.272Z,94.60
2024-02-24T07:49:50.302Z,94.40
2024-02-24T07:50:50.358Z,94.40
2024-02-24T07:51:50.221Z,94.60
2024-02-24T07:52:50.260Z,94.71
2024-02-24T07:53:50.246Z,94.50
2024-02-24T07:54:50.219Z,94.40
2024-02-24T07:55:50.170Z,94.29
2024-02-24T07:56:50.476Z,93.98
2024-02-24T07:57:50.180Z,93.94
2024-02-24T07:58:50.199Z,94.15
2024-02-24T07:59:50.202Z,93.73
2024-02-24T08:00:52.995Z,93.53
2024-02-24T08:01:50.120Z,93.53
2024-02-24T08:02:50.188Z,93.73
2024-02-24T08:03:50.132Z,93.07
2024-02-24T08:04:50.128Z,92.97
2024-02-24T08:05:50.844Z,93.18
2024-02-24T08:06:50.056Z,93.07
2024-02-24T08:07:50.019Z,93.03
2024-02-24T08:08:50.143Z,92.72
2024-02-24T08:09:50.016Z,92.00
2024-02-24T08:10:50.013Z,91.69
2024-02-24T08:11:50.062Z,91.69
2024-02-24T08:12:50.026Z,92.41
2024-02-24T08:13:49.971Z,92.31
2024-02-24T08:14:50.020Z,91.89
2024-02-24T08:15:49.919Z,92.31
2024-02-24T08:16:49.938Z,92.10
2024-02-24T08:17:49.974Z,92.41
2024-02-24T08:18:50.003Z,92.61
2024-02-24T08:19:49.993Z,92.41
2024-02-24T08:20:49.933Z,92.21
2024-02-24T08:21:49.880Z,92.51
2024-02-24T08:22:49.820Z,91.79
2024-02-24T08:23:49.889Z,92.00
2024-02-24T08:24:49.855Z,91.89
2024-02-24T08:25:49.786Z,91.79
2024-02-24T08:26:49.869Z,92.00
2024-02-24T08:27:49.762Z,91.69
2024-02-24T08:28:49.752Z,91.79
2024-02-24T08:29:49.761Z,91.79
2024-02-24T08:30:49.744Z,91.79
2024-02-24T08:31:49.731Z,91.28
2024-02-24T08:32:49.948Z,91.13
2024-02-24T08:33:49.882Z,90.61
2024-02-24T08:34:49.705Z,91.03
2024-02-24T08:35:49.702Z,90.61
2024-02-24T08:36:49.788Z,90.72
2024-02-24T08:37:49.629Z,90.78
2024-02-24T08:38:49.657Z,90.26
2024-02-24T08:39:49.622Z,90.67
2024-02-24T08:40:49.630Z,90.78
2024-02-24T08:41:49.646Z,90.47
2024-02-24T08:42:49.559Z,90.16
2024-02-24T08:43:49.561Z,90.37
2024-02-24T08:44:49.730Z,90.06
2024-02-24T08:45:49.527Z,90.78
2024-02-24T08:46:49.544Z,90.84
2024-02-24T08:47:49.596Z,90.94
2024-02-24T08:48:49.544Z,90.22
2024-02-24T08:49:49.510Z,90.33
2024-02-24T08:50:49.589Z,90.01
2024-02-24T08:51:49.464Z,89.91
2024-02-24T08:52:50.680Z,90.43
2024-02-24T08:53:49.456Z,89.40
2024-02-24T08:54:49.408Z,90.49
2024-02-24T08:55:49.379Z,90.08
2024-02-24T08:56:49.523Z,89.61
2024-02-24T08:57:49.362Z,89.19
2024-02-24T08:58:49.385Z,89.91
2024-02-24T08:59:49.422Z,89.81
2024-02-24T09:00:49.355Z,89.91
2024-02-24T09:01:50.036Z,89.91
2024-02-24T09:02:49.527Z,89.29
2024-02-24T09:03:49.388Z,89.71
2024-02-24T09:04:50.003Z,89.71
2024-02-24T09:05:49.338Z,89.19
2024-02-24T09:06:49.538Z,90.22
2024-02-24T09:07:49.387Z,89.61
2024-02-24T09:08:49.534Z,89.71
2024-02-24T09:09:49.196Z,89.71
2024-02-24T09:10:49.268Z,89.81
2024-02-24T09:11:49.279Z,89.67
2024-02-24T09:12:49.191Z,89.77
2024-02-24T09:13:49.196Z,89.56
2024-02-24T09:14:49.374Z,89.36
2024-02-24T09:15:49.117Z,89.56
2024-02-24T09:16:49.124Z,89.36
2024-02-24T09:17:49.889Z,88.33
2024-02-24T09:18:49.159Z,88.95
2024-02-24T09:19:49.128Z,88.74
2024-02-24T09:20:49.283Z,88.95
2024-02-24T09:21:49.064Z,88.70
2024-02-24T09:22:49.018Z,88.18
2024-02-24T09:23:49.075Z,88.12
2024-02-24T09:24:49.040Z,87.60
2024-02-24T09:25:48.982Z,87.71
2024-02-24T09:26:49.127Z,87.40
2024-02-24T09:27:48.985Z,88.02
2024-02-24T09:28:48.946Z,87.60
2024-02-24T09:29:49.096Z,88.43
2024-02-24T09:30:48.909Z,88.49
2024-02-24T09:31:48.935Z,87.67
2024-02-24T09:32:49.119Z,87.46
2024-02-24T09:33:48.970Z,87.26
2024-02-24T09:34:48.996Z,86.74
2024-02-24T09:35:48.933Z,87.01
2024-02-24T09:36:48.861Z,86.60
2024-02-24T09:37:49.774Z,86.40
2024-02-24T09:38:48.931Z,87.01
2024-02-24T09:39:48.792Z,87.01
2024-02-24T09:40:48.784Z,87.38
2024-02-24T09:41:48.864Z,86.77
2024-02-24T09:42:48.779Z,87.28
2024-02-24T09:43:48.773Z,86.66
2024-02-24T09:44:48.975Z,86.15
2024-02-24T09:45:48.705Z,86.25
2024-02-24T09:46:48.732Z,85.74
2024-02-24T09:47:48.751Z,85.53
2024-02-24T09:48:48.766Z,85.84
2024-02-24T09:49:48.696Z,86.35
2024-02-24T09:50:48.826Z,85.63
2024-02-24T09:51:48.625Z,85.98
2024-02-24T09:52:48.640Z,86.91
2024-02-24T09:53:48.688Z,86.91
2024-02-24T09:54:48.602Z,86.15
2024-02-24T09:55:48.585Z,85.94
2024-02-24T09:56:48.722Z,85.94
2024-02-24T09:57:48.580Z,85.53
2024-02-24T09:58:48.541Z,85.02
2024-02-24T09:59:48.727Z,85.28
2024-02-24T10:00:48.555Z,84.94
2024-02-24T10:01:48.526Z,84.08
2024-02-24T10:02:48.616Z,83.36
2024-02-24T10:03:48.553Z,83.53
2024-02-24T10:04:48.512Z,82.26
2024-02-24T10:05:48.612Z,81.81
2024-02-24T10:06:48.456Z,81.54
2024-02-24T10:07:48.492Z,80.51
2024-02-24T10:08:48.575Z,81.13
2024-02-24T10:09:48.430Z,81.57
2024-02-24T10:10:48.409Z,81.15
2024-02-24T10:11:48.393Z,79.13
2024-02-24T10:12:48.362Z,77.04
2024-02-24T10:13:48.604Z,76.29
2024-02-24T10:14:48.451Z,74.59
2024-02-24T10:15:48.309Z,75.55
2024-02-24T10:16:49.286Z,75.45
2024-02-24T10:17:48.367Z,76.34
2024-02-24T10:18:49.097Z,75.68
2024-02-24T10:19:48.328Z,75.78
2024-02-24T10:20:48.339Z,73.94
2024-02-24T10:21:48.233Z,72.41
2024-02-24T10:22:48.257Z,72.79
2024-02-24T10:23:48.296Z,71.77
2024-02-24T10:24:48.194Z,70.41
2024-02-24T10:25:48.184Z,70.61
2024-02-24T10:26:48.282Z,70.57
2024-02-24T10:27:49.164Z,71.70
2024-02-24T10:28:48.180Z,71.56
2024-02-24T10:29:48.234Z,71.46
2024-02-24T10:30:49.083Z,71.33
2024-02-24T10:31:48.126Z,73.30
2024-02-24T10:32:48.239Z,72.99
2024-02-24T10:33:48.221Z,74.84
2024-02-24T10:34:48.103Z,75.48
2024-02-24T10:35:50.038Z,77.42
2024-02-24T10:36:48.048Z,76.30
2024-02-24T10:38:03.483Z,76.09
2024-02-24T10:38:55.066Z,76.64
2024-02-24T10:39:49.763Z,76.75
2024-02-24T10:40:48.960Z,77.39
2024-02-24T10:41:48.059Z,75.04
2024-02-24T10:42:47.967Z,75.93
2024-02-24T10:43:47.948Z,77.23
2024-02-24T10:44:48.045Z,79.31
2024-02-24T10:45:47.941Z,80.44
2024-02-24T10:46:47.938Z,80.77
2024-02-24T10:47:49.005Z,79.00
2024-02-24T10:48:47.997Z,76.50
2024-02-24T10:49:47.987Z,75.79
2024-02-24T10:50:48.096Z,76.84
2024-02-24T10:51:47.862Z,78.56
2024-02-24T10:52:47.853Z,80.03
2024-02-24T10:53:47.826Z,79.24
2024-02-24T10:54:47.829Z,78.93
2024-02-24T10:55:47.785Z,79.48
2024-02-24T10:56:47.882Z,79.75
2024-02-24T10:57:50.317Z,79.71
2024-02-24T10:58:47.772Z,77.36
2024-02-24T10:59:47.784Z,76.44
2024-02-24T11:00:47.749Z,78.63
2024-02-24T11:01:47.732Z,80.33
2024-02-24T11:02:47.840Z,79.68
2024-02-24T11:03:47.713Z,79.75
2024-02-24T11:04:47.730Z,78.72
2024-02-24T11:05:48.439Z,79.61
2024-02-24T11:06:47.767Z,76.78
2024-02-24T11:07:47.749Z,75.85
2024-02-24T11:08:47.732Z,75.89
2024-02-24T11:09:47.626Z,76.03
2024-02-24T11:10:47.596Z,76.27
2024-02-24T11:11:47.652Z,77.39
2024-02-24T11:12:47.558Z,77.19
2024-02-24T11:13:59.518Z,77.50
2024-02-24T11:14:48.805Z,78.31
2024-02-24T11:15:47.514Z,78.25
2024-02-24T11:16:47.533Z,79.72
2024-02-24T11:17:47.645Z,80.27
2024-02-24T11:18:47.620Z,80.78
2024-02-24T11:19:47.624Z,79.55
2024-02-24T11:20:47.750Z,80.27
2024-02-24T11:21:47.464Z,80.37
2024-02-24T11:22:47.426Z,79.75
2024-02-24T11:23:47.472Z,79.96
2024-02-24T11:24:47.419Z,80.51
2024-02-24T11:25:47.383Z,81.13
2024-02-24T11:26:47.549Z,80.45
2024-02-24T11:27:48.208Z,81.68
2024-02-24T11:28:47.368Z,81.06
2024-02-24T11:29:47.396Z,80.45
2024-02-24T11:30:47.315Z,80.45
2024-02-24T11:31:47.333Z,81.85
2024-02-24T11:32:47.522Z,80.62
2024-02-24T11:33:47.418Z,81.27
2024-02-24T11:34:47.475Z,83.26
2024-02-24T11:35:47.292Z,83.09
2024-02-24T11:36:47.264Z,84.47
2024-02-24T11:37:47.261Z,85.70
2024-02-24T11:38:47.387Z,86.15
2024-02-24T11:39:47.224Z,86.35
2024-02-24T11:40:47.177Z,87.65
2024-02-24T11:41:48.185Z,88.06
2024-02-24T11:42:47.161Z,86.79
2024-02-24T11:43:47.143Z,86.85
2024-02-24T11:44:47.941Z,86.13
2024-02-24T11:45:48.071Z,85.62
2024-02-24T11:46:47.105Z,85.27
2024-02-24T11:47:47.220Z,85.64
2024-02-24T11:48:47.296Z,83.69
2024-02-24T11:49:47.366Z,82.93
2024-02-24T11:50:47.132Z,82.63
2024-02-24T11:51:47.114Z,83.72
2024-02-24T11:52:47.029Z,80.54
2024-02-24T11:53:47.770Z,80.23
2024-02-24T11:54:47.069Z,81.26
2024-02-24T11:55:46.980Z,82.49
2024-02-24T11:56:47.068Z,79.31
2024-02-24T11:57:46.951Z,78.32
2024-02-24T11:58:46.963Z,78.97
2024-02-24T11:59:46.963Z,80.37
2024-02-24T12:00:47.053Z,80.51
2024-02-24T12:01:46.893Z,80.21
2024-02-24T12:02:47.074Z,80.41
2024-02-24T12:03:46.881Z,81.48
2024-02-24T12:04:46.955Z,81.68
2024-02-24T12:05:46.915Z,81.68
2024-02-24T12:06:47.530Z,81.10
2024-02-24T12:07:46.836Z,82.95
2024-02-24T12:08:46.901Z,82.89
2024-02-24T12:09:48.353Z,83.03
2024-02-24T12:10:46.840Z,83.85
2024-02-24T12:11:46.799Z,84.36
2024-02-24T12:12:46.753Z,85.12
2024-02-24T12:13:46.778Z,85.43
2024-02-24T12:14:46.771Z,85.74
2024-02-24T12:15:46.739Z,86.25
2024-02-24T12:16:46.727Z,86.77
2024-02-24T12:17:46.753Z,87.79
2024-02-24T12:18:46.800Z,88.66
2024-02-24T12:19:46.779Z,90.30
2024-02-24T12:20:46.874Z,91.53
2024-02-24T12:21:46.656Z,91.13
2024-02-24T12:22:46.612Z,90.72
2024-02-24T12:23:46.621Z,91.08
2024-02-24T12:24:46.615Z,90.47
2024-02-24T12:25:46.601Z,90.12
2024-02-24T12:26:46.619Z,88.47
2024-02-24T12:27:46.540Z,89.09
2024-02-24T12:28:46.753Z,88.33
2024-02-24T12:29:46.646Z,88.84
2024-02-24T12:30:46.506Z,89.25
2024-02-24T12:31:46.521Z,88.84
2024-02-24T12:32:46.599Z,88.90
2024-02-24T12:33:47.095Z,88.18
2024-02-24T12:34:46.589Z,86.60
2024-02-24T12:35:46.475Z,84.90
2024-02-24T12:36:47.142Z,84.69
2024-02-24T12:37:46.414Z,85.31
2024-02-24T12:38:46.569Z,85.14
2024-02-24T12:39:46.433Z,85.55
2024-02-24T12:40:46.405Z,86.89
2024-02-24T12:41:46.426Z,86.99
2024-02-24T12:42:46.399Z,86.99
2024-02-24T12:43:46.339Z,86.32
2024-02-24T12:44:46.652Z,86.15
2024-02-24T12:45:46.322Z,86.35
2024-02-24T12:46:46.322Z,87.38
2024-02-24T12:47:46.337Z,86.25
2024-02-24T12:48:46.705Z,87.69
2024-02-24T12:49:46.309Z,87.34
2024-02-24T12:50:46.305Z,86.66
2024-02-24T12:51:46.253Z,86.72
2024-02-24T12:52:46.217Z,86.62